sensor_id;sensor_type;location;lat;lon;timestamp;temperature;humidity
56046;DHT22;41913;51.030;3.706;2023-07-28T00:02:08;24.10;91.80
56046;DHT22;41913;51.030;3.706;2023-07-28T00:04:35;24.10;91.80
56046;DHT22;41913;51.030;3.706;2023-07-28T00:07:02;24.10;91.90
56046;DHT22;41913;51.030;3.706;2023-07-28T00:09:27;24.10;91.90
56046;DHT22;41913;51.030;3.706;2023-07-28T00:11:53;24.10;92.10
56046;DHT22;41913;51.030;3.706;2023-07-28T00:14:19;24.10;91.90
56046;DHT22;41913;51.030;3.706;2023-07-28T00:16:44;24.10;91.90
56046;DHT22;41913;51.030;3.706;2023-07-28T00:19:10;24.10;91.90
56046;DHT22;41913;51.030;3.706;2023-07-28T00:21:36;24.10;91.90
56046;DHT22;41913;51.030;3.706;2023-07-28T00:24:01;24.10;91.90
56046;DHT22;41913;51.030;3.706;2023-07-28T00:26:27;24.10;91.90
56046;DHT22;41913;51.030;3.706;2023-07-28T00:28:53;24.10;91.90
56046;DHT22;41913;51.030;3.706;2023-07-28T00:31:18;24.10;91.90
56046;DHT22;41913;51.030;3.706;2023-07-28T00:33:44;24.10;91.90
56046;DHT22;41913;51.030;3.706;2023-07-28T00:36:10;24.10;91.90
56046;DHT22;41913;51.030;3.706;2023-07-28T00:38:35;24.10;91.90
56046;DHT22;41913;51.030;3.706;2023-07-28T00:41:01;24.10;91.90
56046;DHT22;41913;51.030;3.706;2023-07-28T00:43:27;24.10;91.90
56046;DHT22;41913;51.030;3.706;2023-07-28T00:45:53;24.10;91.90
56046;DHT22;41913;51.030;3.706;2023-07-28T00:48:19;24.10;91.90
56046;DHT22;41913;51.030;3.706;2023-07-28T00:50:47;24.00;91.90
56046;DHT22;41913;51.030;3.706;2023-07-28T00:53:13;24.00;91.90
56046;DHT22;41913;51.030;3.706;2023-07-28T00:55:39;24.10;91.90
56046;DHT22;41913;51.030;3.706;2023-07-28T00:58:06;24.00;91.90
56046;DHT22;41913;51.030;3.706;2023-07-28T01:00:31;24.00;91.90
56046;DHT22;41913;51.030;3.706;2023-07-28T01:02:58;24.00;91.90
56046;DHT22;41913;51.030;3.706;2023-07-28T01:05:28;24.00;91.90
56046;DHT22;41913;51.030;3.706;2023-07-28T01:08:06;24.00;91.90
56046;DHT22;41913;51.030;3.706;2023-07-28T01:10:33;24.00;91.90
56046;DHT22;41913;51.030;3.706;2023-07-28T01:12:59;24.00;91.90
56046;DHT22;41913;51.030;3.706;2023-07-28T01:15:26;24.00;91.90
56046;DHT22;41913;51.030;3.706;2023-07-28T01:17:52;24.10;92.20
56046;DHT22;41913;51.030;3.706;2023-07-28T01:20:18;24.00;91.90
56046;DHT22;41913;51.030;3.706;2023-07-28T01:22:48;24.00;91.90
56046;DHT22;41913;51.030;3.706;2023-07-28T01:25:43;24.00;92.00
56046;DHT22;41913;51.030;3.706;2023-07-28T01:28:12;24.00;91.90
56046;DHT22;41913;51.030;3.706;2023-07-28T01:30:38;24.00;92.00
56046;DHT22;41913;51.030;3.706;2023-07-28T01:33:08;24.00;92.00
56046;DHT22;41913;51.030;3.706;2023-07-28T01:35:36;24.00;92.00
56046;DHT22;41913;51.030;3.706;2023-07-28T01:38:02;24.00;91.90
56046;DHT22;41913;51.030;3.706;2023-07-28T01:40:27;24.00;91.90
56046;DHT22;41913;51.030;3.706;2023-07-28T01:42:53;24.00;91.90
56046;DHT22;41913;51.030;3.706;2023-07-28T01:45:19;24.00;91.90
56046;DHT22;41913;51.030;3.706;2023-07-28T01:47:45;24.00;91.90
56046;DHT22;41913;51.030;3.706;2023-07-28T01:50:11;24.00;91.90
56046;DHT22;41913;51.030;3.706;2023-07-28T01:52:36;24.00;91.90
56046;DHT22;41913;51.030;3.706;2023-07-28T01:55:02;24.00;91.90
56046;DHT22;41913;51.030;3.706;2023-07-28T01:57:30;24.00;91.90
56046;DHT22;41913;51.030;3.706;2023-07-28T01:59:57;24.00;91.90
56046;DHT22;41913;51.030;3.706;2023-07-28T02:02:22;24.00;91.90
56046;DHT22;41913;51.030;3.706;2023-07-28T02:04:48;24.00;91.90
56046;DHT22;41913;51.030;3.706;2023-07-28T02:07:13;24.00;91.90
56046;DHT22;41913;51.030;3.706;2023-07-28T02:09:39;24.00;91.90
56046;DHT22;41913;51.030;3.706;2023-07-28T02:12:05;24.00;91.90
56046;DHT22;41913;51.030;3.706;2023-07-28T02:14:31;24.00;91.90
56046;DHT22;41913;51.030;3.706;2023-07-28T02:16:56;24.00;91.90
56046;DHT22;41913;51.030;3.706;2023-07-28T02:19:25;24.00;91.90
56046;DHT22;41913;51.030;3.706;2023-07-28T02:21:51;24.00;91.90
56046;DHT22;41913;51.030;3.706;2023-07-28T02:24:17;24.00;91.90
56046;DHT22;41913;51.030;3.706;2023-07-28T02:26:43;24.00;91.90
56046;DHT22;41913;51.030;3.706;2023-07-28T02:29:08;24.00;91.90
56046;DHT22;41913;51.030;3.706;2023-07-28T02:31:34;24.00;91.90
56046;DHT22;41913;51.030;3.706;2023-07-28T02:33:59;23.90;91.90
56046;DHT22;41913;51.030;3.706;2023-07-28T02:36:25;24.00;91.90
56046;DHT22;41913;51.030;3.706;2023-07-28T02:38:52;24.00;91.90
56046;DHT22;41913;51.030;3.706;2023-07-28T02:41:17;24.00;91.90
56046;DHT22;41913;51.030;3.706;2023-07-28T02:43:43;24.00;91.90
56046;DHT22;41913;51.030;3.706;2023-07-28T02:46:09;24.00;91.90
56046;DHT22;41913;51.030;3.706;2023-07-28T02:48:35;24.00;91.90
56046;DHT22;41913;51.030;3.706;2023-07-28T02:51:01;24.00;91.90
56046;DHT22;41913;51.030;3.706;2023-07-28T02:53:26;24.00;91.90
56046;DHT22;41913;51.030;3.706;2023-07-28T02:55:52;24.00;91.90
56046;DHT22;41913;51.030;3.706;2023-07-28T02:58:18;24.00;92.20
56046;DHT22;41913;51.030;3.706;2023-07-28T03:00:44;24.00;91.90
56046;DHT22;41913;51.030;3.706;2023-07-28T03:03:12;24.00;91.90
56046;DHT22;41913;51.030;3.706;2023-07-28T03:05:38;24.00;91.90
56046;DHT22;41913;51.030;3.706;2023-07-28T03:08:04;24.00;91.90
56046;DHT22;41913;51.030;3.706;2023-07-28T03:10:30;24.00;91.90
56046;DHT22;41913;51.030;3.706;2023-07-28T03:12:55;24.00;91.90
56046;DHT22;41913;51.030;3.706;2023-07-28T03:15:21;24.00;91.90
56046;DHT22;41913;51.030;3.706;2023-07-28T03:17:48;23.90;91.90
56046;DHT22;41913;51.030;3.706;2023-07-28T03:20:14;24.00;91.90
56046;DHT22;41913;51.030;3.706;2023-07-28T03:22:39;24.00;91.90
56046;DHT22;41913;51.030;3.706;2023-07-28T03:25:05;24.00;91.90
56046;DHT22;41913;51.030;3.706;2023-07-28T03:27:31;24.00;91.90
56046;DHT22;41913;51.030;3.706;2023-07-28T03:29:57;24.00;91.90
56046;DHT22;41913;51.030;3.706;2023-07-28T03:32:22;24.00;91.90
56046;DHT22;41913;51.030;3.706;2023-07-28T03:34:48;24.00;91.80
56046;DHT22;41913;51.030;3.706;2023-07-28T03:37:14;23.90;91.80
56046;DHT22;41913;51.030;3.706;2023-07-28T03:39:39;24.00;91.80
56046;DHT22;41913;51.030;3.706;2023-07-28T03:42:05;24.00;91.80
56046;DHT22;41913;51.030;3.706;2023-07-28T03:44:31;24.00;91.80
56046;DHT22;41913;51.030;3.706;2023-07-28T03:46:56;23.90;91.80
56046;DHT22;41913;51.030;3.706;2023-07-28T03:49:22;24.00;91.90
56046;DHT22;41913;51.030;3.706;2023-07-28T03:51:49;24.00;91.90
56046;DHT22;41913;51.030;3.706;2023-07-28T03:54:14;24.00;91.80
56046;DHT22;41913;51.030;3.706;2023-07-28T03:56:41;24.00;91.80
56046;DHT22;41913;51.030;3.706;2023-07-28T03:59:06;24.00;91.80
56046;DHT22;41913;51.030;3.706;2023-07-28T04:01:32;24.00;91.80
56046;DHT22;41913;51.030;3.706;2023-07-28T04:03:58;23.90;91.80
56046;DHT22;41913;51.030;3.706;2023-07-28T04:06:40;24.00;91.80
56046;DHT22;41913;51.030;3.706;2023-07-28T04:09:07;24.00;91.80
56046;DHT22;41913;51.030;3.706;2023-07-28T04:11:34;24.00;91.80
56046;DHT22;41913;51.030;3.706;2023-07-28T04:13:59;24.00;91.80
56046;DHT22;41913;51.030;3.706;2023-07-28T04:16:25;23.90;91.80
56046;DHT22;41913;51.030;3.706;2023-07-28T04:18:50;24.00;91.80
56046;DHT22;41913;51.030;3.706;2023-07-28T04:21:16;24.00;91.80
56046;DHT22;41913;51.030;3.706;2023-07-28T04:23:42;24.00;91.80
56046;DHT22;41913;51.030;3.706;2023-07-28T04:26:09;24.00;91.80
56046;DHT22;41913;51.030;3.706;2023-07-28T04:28:34;24.00;91.80
56046;DHT22;41913;51.030;3.706;2023-07-28T04:31:00;24.00;91.80
56046;DHT22;41913;51.030;3.706;2023-07-28T04:33:26;24.00;91.80
56046;DHT22;41913;51.030;3.706;2023-07-28T04:35:51;24.00;91.80
56046;DHT22;41913;51.030;3.706;2023-07-28T04:38:17;24.00;91.80
56046;DHT22;41913;51.030;3.706;2023-07-28T04:40:44;23.90;91.80
56046;DHT22;41913;51.030;3.706;2023-07-28T04:43:10;24.00;92.00
56046;DHT22;41913;51.030;3.706;2023-07-28T04:45:35;24.00;91.80
56046;DHT22;41913;51.030;3.706;2023-07-28T04:48:01;24.00;91.80
56046;DHT22;41913;51.030;3.706;2023-07-28T04:50:28;24.00;91.80
56046;DHT22;41913;51.030;3.706;2023-07-28T04:52:54;23.90;91.80
56046;DHT22;41913;51.030;3.706;2023-07-28T04:55:19;24.00;91.90
56046;DHT22;41913;51.030;3.706;2023-07-28T04:57:46;23.90;91.80
56046;DHT22;41913;51.030;3.706;2023-07-28T05:00:12;24.00;91.90
56046;DHT22;41913;51.030;3.706;2023-07-28T05:02:38;24.00;91.90
56046;DHT22;41913;51.030;3.706;2023-07-28T05:05:04;24.00;91.90
56046;DHT22;41913;51.030;3.706;2023-07-28T05:07:30;24.00;91.90
56046;DHT22;41913;51.030;3.706;2023-07-28T05:09:56;24.00;91.90
56046;DHT22;41913;51.030;3.706;2023-07-28T05:12:21;24.00;91.90
56046;DHT22;41913;51.030;3.706;2023-07-28T05:14:47;24.00;91.90
56046;DHT22;41913;51.030;3.706;2023-07-28T05:17:13;23.90;91.90
56046;DHT22;41913;51.030;3.706;2023-07-28T05:19:40;24.00;91.90
56046;DHT22;41913;51.030;3.706;2023-07-28T05:22:08;24.00;91.90
56046;DHT22;41913;51.030;3.706;2023-07-28T05:24:33;23.90;91.90
56046;DHT22;41913;51.030;3.706;2023-07-28T05:26:59;23.90;91.90
56046;DHT22;41913;51.030;3.706;2023-07-28T05:29:26;23.90;91.90
56046;DHT22;41913;51.030;3.706;2023-07-28T05:31:51;23.90;91.90
56046;DHT22;41913;51.030;3.706;2023-07-28T05:34:17;23.90;92.00
56046;DHT22;41913;51.030;3.706;2023-07-28T05:36:43;23.90;92.00
56046;DHT22;41913;51.030;3.706;2023-07-28T05:39:09;23.90;92.00
56046;DHT22;41913;51.030;3.706;2023-07-28T05:41:37;23.90;92.00
56046;DHT22;41913;51.030;3.706;2023-07-28T05:44:03;23.90;92.00
56046;DHT22;41913;51.030;3.706;2023-07-28T05:46:29;23.90;92.00
56046;DHT22;41913;51.030;3.706;2023-07-28T05:48:57;23.90;91.90
56046;DHT22;41913;51.030;3.706;2023-07-28T05:51:23;23.90;91.90
56046;DHT22;41913;51.030;3.706;2023-07-28T05:53:49;24.00;92.00
56046;DHT22;41913;51.030;3.706;2023-07-28T05:56:18;24.00;92.20
56046;DHT22;41913;51.030;3.706;2023-07-28T05:58:45;24.00;92.90
56046;DHT22;41913;51.030;3.706;2023-07-28T06:01:11;24.00;93.10
56046;DHT22;41913;51.030;3.706;2023-07-28T06:03:37;24.00;92.20
56046;DHT22;41913;51.030;3.706;2023-07-28T06:06:02;24.00;92.20
56046;DHT22;41913;51.030;3.706;2023-07-28T06:08:28;24.00;91.80
56046;DHT22;41913;51.030;3.706;2023-07-28T06:10:54;24.10;91.70
56046;DHT22;41913;51.030;3.706;2023-07-28T06:13:20;24.00;91.60
56046;DHT22;41913;51.030;3.706;2023-07-28T06:15:47;24.00;91.60
56046;DHT22;41913;51.030;3.706;2023-07-28T06:18:13;24.00;91.70
56046;DHT22;41913;51.030;3.706;2023-07-28T06:20:43;24.00;91.60
56046;DHT22;41913;51.030;3.706;2023-07-28T06:23:11;24.00;91.60
56046;DHT22;41913;51.030;3.706;2023-07-28T06:25:37;23.90;91.50
56046;DHT22;41913;51.030;3.706;2023-07-28T06:28:10;23.90;91.60
56046;DHT22;41913;51.030;3.706;2023-07-28T06:30:37;24.00;91.50
56046;DHT22;41913;51.030;3.706;2023-07-28T06:33:04;23.90;91.60
56046;DHT22;41913;51.030;3.706;2023-07-28T06:35:30;23.90;91.60
56046;DHT22;41913;51.030;3.706;2023-07-28T06:37:55;23.90;91.50
56046;DHT22;41913;51.030;3.706;2023-07-28T06:40:21;23.90;91.40
56046;DHT22;41913;51.030;3.706;2023-07-28T06:42:47;24.00;91.30
56046;DHT22;41913;51.030;3.706;2023-07-28T06:45:13;24.00;91.30
56046;DHT22;41913;51.030;3.706;2023-07-28T06:47:39;24.00;91.30
56046;DHT22;41913;51.030;3.706;2023-07-28T06:50:05;23.90;91.30
56046;DHT22;41913;51.030;3.706;2023-07-28T06:52:31;24.00;91.30
56046;DHT22;41913;51.030;3.706;2023-07-28T06:54:57;24.00;91.20
56046;DHT22;41913;51.030;3.706;2023-07-28T06:57:22;24.00;91.20
56046;DHT22;41913;51.030;3.706;2023-07-28T06:59:49;24.00;91.30
56046;DHT22;41913;51.030;3.706;2023-07-28T07:02:15;23.90;91.30
56046;DHT22;41913;51.030;3.706;2023-07-28T07:04:41;23.90;91.10
56046;DHT22;41913;51.030;3.706;2023-07-28T07:07:07;24.00;91.30
56046;DHT22;41913;51.030;3.706;2023-07-28T07:09:33;23.90;91.30
56046;DHT22;41913;51.030;3.706;2023-07-28T07:11:58;24.00;91.40
56046;DHT22;41913;51.030;3.706;2023-07-28T07:14:24;24.00;91.30
56046;DHT22;41913;51.030;3.706;2023-07-28T07:16:49;24.00;91.30
56046;DHT22;41913;51.030;3.706;2023-07-28T07:19:15;24.00;91.50
56046;DHT22;41913;51.030;3.706;2023-07-28T07:21:41;23.90;91.50
56046;DHT22;41913;51.030;3.706;2023-07-28T07:24:07;23.90;91.50
56046;DHT22;41913;51.030;3.706;2023-07-28T07:26:35;23.90;91.50
56046;DHT22;41913;51.030;3.706;2023-07-28T07:29:00;23.90;91.50
56046;DHT22;41913;51.030;3.706;2023-07-28T07:31:26;23.90;91.50
56046;DHT22;41913;51.030;3.706;2023-07-28T07:33:52;23.90;91.50
56046;DHT22;41913;51.030;3.706;2023-07-28T07:36:19;23.90;91.60
56046;DHT22;41913;51.030;3.706;2023-07-28T07:38:45;23.90;91.60
56046;DHT22;41913;51.030;3.706;2023-07-28T07:41:12;23.90;91.60
56046;DHT22;41913;51.030;3.706;2023-07-28T07:43:38;23.90;91.60
56046;DHT22;41913;51.030;3.706;2023-07-28T07:46:04;23.90;91.60
56046;DHT22;41913;51.030;3.706;2023-07-28T07:48:30;23.90;91.70
56046;DHT22;41913;51.030;3.706;2023-07-28T07:50:56;23.90;91.80
56046;DHT22;41913;51.030;3.706;2023-07-28T07:53:21;23.90;91.80
56046;DHT22;41913;51.030;3.706;2023-07-28T07:55:48;23.90;91.90
56046;DHT22;41913;51.030;3.706;2023-07-28T07:58:14;23.90;91.80
56046;DHT22;41913;51.030;3.706;2023-07-28T08:00:40;23.90;91.70
56046;DHT22;41913;51.030;3.706;2023-07-28T08:03:06;23.90;91.40
56046;DHT22;41913;51.030;3.706;2023-07-28T08:05:32;23.80;91.10
56046;DHT22;41913;51.030;3.706;2023-07-28T08:07:57;23.90;90.90
56046;DHT22;41913;51.030;3.706;2023-07-28T08:10:23;23.90;90.90
56046;DHT22;41913;51.030;3.706;2023-07-28T08:12:49;23.90;90.80
56046;DHT22;41913;51.030;3.706;2023-07-28T08:15:15;23.90;90.80
56046;DHT22;41913;51.030;3.706;2023-07-28T08:17:41;23.90;90.60
56046;DHT22;41913;51.030;3.706;2023-07-28T08:20:07;23.90;90.50
56046;DHT22;41913;51.030;3.706;2023-07-28T08:22:34;23.90;90.40
56046;DHT22;41913;51.030;3.706;2023-07-28T08:25:00;23.90;90.40
56046;DHT22;41913;51.030;3.706;2023-07-28T08:27:25;23.90;90.40
56046;DHT22;41913;51.030;3.706;2023-07-28T08:29:51;23.90;90.50
56046;DHT22;41913;51.030;3.706;2023-07-28T08:32:17;23.90;90.70
56046;DHT22;41913;51.030;3.706;2023-07-28T08:34:42;23.90;90.60
56046;DHT22;41913;51.030;3.706;2023-07-28T08:37:08;23.90;90.40
56046;DHT22;41913;51.030;3.706;2023-07-28T08:39:34;23.90;90.60
56046;DHT22;41913;51.030;3.706;2023-07-28T08:42:01;23.90;90.40
56046;DHT22;41913;51.030;3.706;2023-07-28T08:44:31;23.90;90.30
56046;DHT22;41913;51.030;3.706;2023-07-28T08:46:59;23.90;90.40
56046;DHT22;41913;51.030;3.706;2023-07-28T08:49:25;23.90;90.50
56046;DHT22;41913;51.030;3.706;2023-07-28T08:51:52;23.90;90.40
56046;DHT22;41913;51.030;3.706;2023-07-28T08:54:18;23.90;90.30
56046;DHT22;41913;51.030;3.706;2023-07-28T08:56:43;23.90;90.20
56046;DHT22;41913;51.030;3.706;2023-07-28T08:59:09;23.90;90.10
56046;DHT22;41913;51.030;3.706;2023-07-28T09:01:41;23.90;90.10
56046;DHT22;41913;51.030;3.706;2023-07-28T09:04:11;23.90;90.40
56046;DHT22;41913;51.030;3.706;2023-07-28T09:06:37;23.90;90.30
56046;DHT22;41913;51.030;3.706;2023-07-28T09:09:06;23.90;90.30
56046;DHT22;41913;51.030;3.706;2023-07-28T09:11:32;23.90;90.20
56046;DHT22;41913;51.030;3.706;2023-07-28T09:14:00;23.90;90.20
56046;DHT22;41913;51.030;3.706;2023-07-28T09:16:26;23.90;90.20
56046;DHT22;41913;51.030;3.706;2023-07-28T09:19:07;23.90;90.20
56046;DHT22;41913;51.030;3.706;2023-07-28T09:21:35;23.90;90.20
56046;DHT22;41913;51.030;3.706;2023-07-28T09:24:04;23.90;90.20
56046;DHT22;41913;51.030;3.706;2023-07-28T09:26:47;23.90;90.20
56046;DHT22;41913;51.030;3.706;2023-07-28T09:29:16;23.90;90.20
56046;DHT22;41913;51.030;3.706;2023-07-28T09:31:46;23.90;90.30
56046;DHT22;41913;51.030;3.706;2023-07-28T09:34:23;23.90;90.20
56046;DHT22;41913;51.030;3.706;2023-07-28T09:36:49;23.90;90.30
56046;DHT22;41913;51.030;3.706;2023-07-28T09:39:15;23.90;90.30
56046;DHT22;41913;51.030;3.706;2023-07-28T09:41:43;23.90;90.10
56046;DHT22;41913;51.030;3.706;2023-07-28T09:44:10;23.90;90.00
56046;DHT22;41913;51.030;3.706;2023-07-28T09:46:50;23.90;90.00
56046;DHT22;41913;51.030;3.706;2023-07-28T09:49:22;23.90;90.00
56046;DHT22;41913;51.030;3.706;2023-07-28T09:51:53;23.90;90.00
56046;DHT22;41913;51.030;3.706;2023-07-28T09:54:28;23.90;90.20
56046;DHT22;41913;51.030;3.706;2023-07-28T09:56:56;23.90;90.00
56046;DHT22;41913;51.030;3.706;2023-07-28T09:59:45;23.90;90.00
56046;DHT22;41913;51.030;3.706;2023-07-28T10:02:13;23.90;89.90
56046;DHT22;41913;51.030;3.706;2023-07-28T10:04:39;23.90;90.00
56046;DHT22;41913;51.030;3.706;2023-07-28T10:07:07;23.90;90.40
56046;DHT22;41913;51.030;3.706;2023-07-28T10:09:34;23.90;90.60
56046;DHT22;41913;51.030;3.706;2023-07-28T10:12:00;23.90;90.80
56046;DHT22;41913;51.030;3.706;2023-07-28T10:14:28;23.90;91.10
56046;DHT22;41913;51.030;3.706;2023-07-28T10:16:57;23.90;90.90
56046;DHT22;41913;51.030;3.706;2023-07-28T10:19:27;23.90;90.90
56046;DHT22;41913;51.030;3.706;2023-07-28T10:22:07;23.90;90.90
56046;DHT22;41913;51.030;3.706;2023-07-28T10:25:12;23.90;91.00
56046;DHT22;41913;51.030;3.706;2023-07-28T10:27:43;24.00;91.10
56046;DHT22;41913;51.030;3.706;2023-07-28T10:30:12;23.90;91.20
56046;DHT22;41913;51.030;3.706;2023-07-28T10:35:09;23.90;91.30
56046;DHT22;41913;51.030;3.706;2023-07-28T10:37:47;23.90;91.30
56046;DHT22;41913;51.030;3.706;2023-07-28T10:40:29;23.90;91.30
56046;DHT22;41913;51.030;3.706;2023-07-28T10:43:03;23.90;91.30
56046;DHT22;41913;51.030;3.706;2023-07-28T10:45:31;23.90;91.30
56046;DHT22;41913;51.030;3.706;2023-07-28T10:47:58;23.90;91.30
56046;DHT22;41913;51.030;3.706;2023-07-28T10:50:32;23.90;91.20
56046;DHT22;41913;51.030;3.706;2023-07-28T10:52:58;23.90;91.10
56046;DHT22;41913;51.030;3.706;2023-07-28T10:55:25;23.90;91.10
56046;DHT22;41913;51.030;3.706;2023-07-28T10:57:53;23.90;91.00
56046;DHT22;41913;51.030;3.706;2023-07-28T11:00:22;24.00;91.00
56046;DHT22;41913;51.030;3.706;2023-07-28T11:02:50;24.00;91.10
56046;DHT22;41913;51.030;3.706;2023-07-28T11:05:25;24.00;91.00
56046;DHT22;41913;51.030;3.706;2023-07-28T11:08:02;24.00;91.20
56046;DHT22;41913;51.030;3.706;2023-07-28T11:10:31;24.00;91.20
56046;DHT22;41913;51.030;3.706;2023-07-28T11:13:01;24.00;90.90
56046;DHT22;41913;51.030;3.706;2023-07-28T11:15:27;24.00;91.00
56046;DHT22;41913;51.030;3.706;2023-07-28T11:17:54;24.00;91.10
56046;DHT22;41913;51.030;3.706;2023-07-28T11:20:27;24.00;91.00
56046;DHT22;41913;51.030;3.706;2023-07-28T11:22:59;24.00;91.00
56046;DHT22;41913;51.030;3.706;2023-07-28T11:25:26;24.00;91.20
56046;DHT22;41913;51.030;3.706;2023-07-28T11:27:52;24.00;90.90
56046;DHT22;41913;51.030;3.706;2023-07-28T11:30:19;24.00;90.70
56046;DHT22;41913;51.030;3.706;2023-07-28T11:32:47;24.00;90.80
56046;DHT22;41913;51.030;3.706;2023-07-28T11:35:14;24.00;90.70
56046;DHT22;41913;51.030;3.706;2023-07-28T11:37:42;24.00;90.70
56046;DHT22;41913;51.030;3.706;2023-07-28T11:40:09;24.00;90.70
56046;DHT22;41913;51.030;3.706;2023-07-28T11:42:40;24.00;90.70
56046;DHT22;41913;51.030;3.706;2023-07-28T11:45:07;24.00;90.90
56046;DHT22;41913;51.030;3.706;2023-07-28T11:47:33;24.00;90.90
56046;DHT22;41913;51.030;3.706;2023-07-28T11:50:01;24.00;90.60
56046;DHT22;41913;51.030;3.706;2023-07-28T11:52:31;24.00;90.60
56046;DHT22;41913;51.030;3.706;2023-07-28T11:54:59;24.00;90.50
56046;DHT22;41913;51.030;3.706;2023-07-28T11:57:26;23.90;90.60
56046;DHT22;41913;51.030;3.706;2023-07-28T11:59:52;23.90;90.40
56046;DHT22;41913;51.030;3.706;2023-07-28T12:02:25;23.90;90.30
56046;DHT22;41913;51.030;3.706;2023-07-28T12:04:52;24.00;90.70
56046;DHT22;41913;51.030;3.706;2023-07-28T12:07:27;24.00;90.40
56046;DHT22;41913;51.030;3.706;2023-07-28T12:09:53;23.90;90.50
56046;DHT22;41913;51.030;3.706;2023-07-28T12:12:22;24.00;90.80
56046;DHT22;41913;51.030;3.706;2023-07-28T12:14:48;24.00;90.50
56046;DHT22;41913;51.030;3.706;2023-07-28T12:17:18;24.00;90.80
56046;DHT22;41913;51.030;3.706;2023-07-28T12:20:04;24.00;90.90
56046;DHT22;41913;51.030;3.706;2023-07-28T12:22:44;24.00;90.90
56046;DHT22;41913;51.030;3.706;2023-07-28T12:25:10;24.00;90.90
56046;DHT22;41913;51.030;3.706;2023-07-28T12:27:37;24.00;91.20
56046;DHT22;41913;51.030;3.706;2023-07-28T12:30:04;23.90;91.20
56046;DHT22;41913;51.030;3.706;2023-07-28T12:32:30;24.00;90.90
56046;DHT22;41913;51.030;3.706;2023-07-28T12:34:56;23.90;91.20
56046;DHT22;41913;51.030;3.706;2023-07-28T12:37:21;24.00;91.70
56046;DHT22;41913;51.030;3.706;2023-07-28T12:39:48;24.00;92.00
56046;DHT22;41913;51.030;3.706;2023-07-28T12:42:14;24.00;91.90
56046;DHT22;41913;51.030;3.706;2023-07-28T12:44:41;24.00;92.10
56046;DHT22;41913;51.030;3.706;2023-07-28T12:47:07;24.00;92.10
56046;DHT22;41913;51.030;3.706;2023-07-28T12:49:33;24.00;92.00
56046;DHT22;41913;51.030;3.706;2023-07-28T12:52:01;24.00;92.30
56046;DHT22;41913;51.030;3.706;2023-07-28T12:54:28;24.10;92.00
56046;DHT22;41913;51.030;3.706;2023-07-28T12:56:56;24.00;92.00
56046;DHT22;41913;51.030;3.706;2023-07-28T12:59:22;24.00;92.00
56046;DHT22;41913;51.030;3.706;2023-07-28T13:01:47;24.10;92.00
56046;DHT22;41913;51.030;3.706;2023-07-28T13:04:13;24.10;92.00
56046;DHT22;41913;51.030;3.706;2023-07-28T13:06:39;24.10;92.00
56046;DHT22;41913;51.030;3.706;2023-07-28T13:09:06;24.10;91.90
56046;DHT22;41913;51.030;3.706;2023-07-28T13:11:33;24.10;91.80
56046;DHT22;41913;51.030;3.706;2023-07-28T13:14:00;24.10;91.70
56046;DHT22;41913;51.030;3.706;2023-07-28T13:16:25;24.10;91.80
56046;DHT22;41913;51.030;3.706;2023-07-28T13:18:53;24.10;91.80
56046;DHT22;41913;51.030;3.706;2023-07-28T13:21:19;24.10;91.60
56046;DHT22;41913;51.030;3.706;2023-07-28T13:23:44;24.10;91.70
56046;DHT22;41913;51.030;3.706;2023-07-28T13:26:10;24.10;91.70
56046;DHT22;41913;51.030;3.706;2023-07-28T13:28:36;24.10;91.70
56046;DHT22;41913;51.030;3.706;2023-07-28T13:31:02;24.10;91.70
56046;DHT22;41913;51.030;3.706;2023-07-28T13:33:28;24.10;91.70
56046;DHT22;41913;51.030;3.706;2023-07-28T13:35:54;24.10;91.60
56046;DHT22;41913;51.030;3.706;2023-07-28T13:38:20;24.10;91.60
56046;DHT22;41913;51.030;3.706;2023-07-28T13:40:45;24.10;91.70
56046;DHT22;41913;51.030;3.706;2023-07-28T13:43:12;24.10;91.80
56046;DHT22;41913;51.030;3.706;2023-07-28T13:45:38;24.10;91.50
56046;DHT22;41913;51.030;3.706;2023-07-28T13:48:03;24.00;91.30
56046;DHT22;41913;51.030;3.706;2023-07-28T13:50:29;24.00;91.40
56046;DHT22;41913;51.030;3.706;2023-07-28T13:52:55;24.00;91.40
56046;DHT22;41913;51.030;3.706;2023-07-28T13:55:21;24.00;91.50
56046;DHT22;41913;51.030;3.706;2023-07-28T13:57:48;24.00;91.60
56046;DHT22;41913;51.030;3.706;2023-07-28T14:00:14;24.10;91.60
56046;DHT22;41913;51.030;3.706;2023-07-28T14:02:40;24.10;91.60
56046;DHT22;41913;51.030;3.706;2023-07-28T14:05:06;24.10;91.60
56046;DHT22;41913;51.030;3.706;2023-07-28T14:07:33;24.10;91.60
56046;DHT22;41913;51.030;3.706;2023-07-28T14:10:00;24.10;91.70
56046;DHT22;41913;51.030;3.706;2023-07-28T14:12:27;24.10;91.70
56046;DHT22;41913;51.030;3.706;2023-07-28T14:14:53;24.10;91.60
56046;DHT22;41913;51.030;3.706;2023-07-28T14:17:18;24.10;91.60
56046;DHT22;41913;51.030;3.706;2023-07-28T14:19:44;24.10;91.60
56046;DHT22;41913;51.030;3.706;2023-07-28T14:22:10;24.10;91.50
56046;DHT22;41913;51.030;3.706;2023-07-28T14:24:36;24.10;91.50
56046;DHT22;41913;51.030;3.706;2023-07-28T14:27:01;24.20;91.50
56046;DHT22;41913;51.030;3.706;2023-07-28T14:29:27;24.10;91.40
56046;DHT22;41913;51.030;3.706;2023-07-28T14:31:53;24.10;91.50
56046;DHT22;41913;51.030;3.706;2023-07-28T14:34:19;24.10;91.50
56046;DHT22;41913;51.030;3.706;2023-07-28T14:36:44;24.10;91.50
56046;DHT22;41913;51.030;3.706;2023-07-28T14:39:11;24.20;91.50
56046;DHT22;41913;51.030;3.706;2023-07-28T14:41:38;24.20;91.50
56046;DHT22;41913;51.030;3.706;2023-07-28T14:44:04;24.10;91.50
56046;DHT22;41913;51.030;3.706;2023-07-28T14:46:30;24.10;91.50
56046;DHT22;41913;51.030;3.706;2023-07-28T14:48:56;24.20;91.60
56046;DHT22;41913;51.030;3.706;2023-07-28T14:51:22;24.20;91.60
56046;DHT22;41913;51.030;3.706;2023-07-28T14:53:48;24.20;91.50
56046;DHT22;41913;51.030;3.706;2023-07-28T14:56:15;24.20;91.50
56046;DHT22;41913;51.030;3.706;2023-07-28T14:58:42;24.20;91.60
56046;DHT22;41913;51.030;3.706;2023-07-28T15:01:10;24.20;91.40
56046;DHT22;41913;51.030;3.706;2023-07-28T15:03:36;24.20;91.40
56046;DHT22;41913;51.030;3.706;2023-07-28T15:06:03;24.20;91.30
56046;DHT22;41913;51.030;3.706;2023-07-28T15:08:31;24.20;91.30
56046;DHT22;41913;51.030;3.706;2023-07-28T15:10:57;24.20;91.40
56046;DHT22;41913;51.030;3.706;2023-07-28T15:13:23;24.20;91.30
56046;DHT22;41913;51.030;3.706;2023-07-28T15:15:49;24.20;91.30
56046;DHT22;41913;51.030;3.706;2023-07-28T15:18:15;24.20;91.30
56046;DHT22;41913;51.030;3.706;2023-07-28T15:20:42;24.20;91.20
56046;DHT22;41913;51.030;3.706;2023-07-28T15:23:08;24.20;91.30
56046;DHT22;41913;51.030;3.706;2023-07-28T15:25:33;24.20;91.30
56046;DHT22;41913;51.030;3.706;2023-07-28T15:27:59;24.20;91.40
56046;DHT22;41913;51.030;3.706;2023-07-28T15:30:25;24.20;91.40
56046;DHT22;41913;51.030;3.706;2023-07-28T15:32:51;24.20;91.40